Time;durP1;ratioP1;P1;durP2;ratioP2;P2;SDS_P1;SDS_P2;PMS_P1;PMS_P2;Temp;Humidity;BMP_temperature;BMP_pressure;BME280_temperature;BME280_humidity;BME280_pressure;Samples;Min_cycle;Max_cycle;Signal;HPM_P1;HPM_P2
2023/02/12 00:01:33;;;;;;;25.75;13.02;;;;;;;-143.48;87.88;118439.88;5055931;28;20112;-36
2023/02/12 00:03:59;;;;;;;23.85;13.25;;;;;;;-143.48;87.57;118439.88;5055846;28;20075;-36
2023/02/12 00:06:25;;;;;;;22.60;12.35;;;;;;;-143.48;87.96;118439.88;5055914;28;20025;-35
2023/02/12 00:08:52;;;;;;;26.00;13.60;;;;;;;-143.48;88.24;118439.88;5056118;28;20017;-35
2023/02/12 00:11:21;;;;;;;28.10;13.07;;;;;;;-143.48;88.08;118439.88;5055843;28;20025;-36
2023/02/12 00:13:46;;;;;;;28.60;14.07;;;;;;;-143.48;88.42;118439.88;5055396;28;20029;-34
2023/02/12 00:16:15;;;;;;;26.88;13.45;;;;;;;-143.48;87.84;118439.88;5054687;28;20035;-34
2023/02/12 00:18:40;;;;;;;28.67;14.40;;;;;;;-143.48;87.40;118439.88;5055482;28;20492;-35
2023/02/12 00:21:09;;;;;;;25.80;13.90;;;;;;;-143.48;87.91;118439.88;5055566;28;20021;-34
2023/02/12 00:23:36;;;;;;;24.73;13.50;;;;;;;-143.48;87.43;118439.88;5055837;28;20063;-34
2023/02/12 00:26:08;;;;;;;26.48;13.80;;;;;;;-143.48;87.85;118439.88;5055592;28;20380;-36
2023/02/12 00:28:35;;;;;;;30.58;13.95;;;;;;;-143.48;87.92;118439.88;5055470;28;20035;-36
2023/02/12 00:31:21;;;;;;;25.58;13.38;;;;;;;-143.48;87.93;118439.88;5055378;28;20094;-34
2023/02/12 00:33:48;;;;;;;24.58;13.73;;;;;;;-143.48;87.91;118439.88;5055026;28;20468;-35
2023/02/12 00:36:18;;;;;;;25.58;13.57;;;;;;;-143.48;87.44;118439.88;5054100;28;20361;-35
2023/02/12 00:38:44;;;;;;;29.83;14.13;;;;;;;-143.48;88.14;118439.88;5055547;28;20029;-35
2023/02/12 00:41:10;;;;;;;25.05;13.68;;;;;;;-143.48;88.23;118439.88;5055252;28;20112;-35
2023/02/12 00:43:35;;;;;;;27.27;14.50;;;;;;;-143.48;88.30;118439.88;5055750;28;20033;-34
2023/02/12 00:46:01;;;;;;;27.08;13.13;;;;;;;-143.48;88.88;118439.88;5054859;28;20032;-35
2023/02/12 00:48:27;;;;;;;25.33;14.23;;;;;;;-143.48;88.34;118439.88;5055220;28;20035;-36
2023/02/12 00:50:53;;;;;;;35.55;15.48;;;;;;;-143.48;88.54;118439.88;5055356;28;20102;-34
2023/02/12 00:53:18;;;;;;;31.95;14.35;;;;;;;-143.48;88.51;118439.88;5055424;28;20103;-34
2023/02/12 00:55:44;;;;;;;30.52;14.73;;;;;;;-143.48;88.74;118439.88;5053778;28;20103;-34
2023/02/12 00:58:09;;;;;;;30.75;15.15;;;;;;;-143.48;88.45;118439.88;5055135;28;20021;-34
2023/02/12 01:00:35;;;;;;;28.35;14.25;;;;;;;-143.48;88.51;118439.88;5055475;28;20029;-34
2023/02/12 01:03:00;;;;;;;25.75;14.05;;;;;;;-143.48;88.33;118439.88;5054874;28;20029;-34
2023/02/12 01:05:26;;;;;;;27.05;13.95;;;;;;;-143.48;87.93;118439.88;5054778;28;20060;-34
2023/02/12 01:07:52;;;;;;;25.65;14.02;;;;;;;-143.48;88.18;118439.88;5055313;28;20412;-35
2023/02/12 01:10:19;;;;;;;27.88;13.93;;;;;;;-143.48;88.51;118439.88;5054762;28;20103;-35
2023/02/12 01:12:45;;;;;;;31.48;14.43;;;;;;;-143.48;88.64;118439.88;5054766;28;20086;-34
2023/02/12 01:15:11;;;;;;;27.02;14.40;;;;;;;-143.48;88.91;118439.88;5054989;28;20075;-34
2023/02/12 01:17:37;;;;;;;26.17;13.63;;;;;;;-143.48;88.55;118439.88;5055086;28;20367;-34
2023/02/12 01:20:05;;;;;;;27.52;14.15;;;;;;;-143.48;88.74;118439.88;5054375;28;20041;-35
2023/02/12 01:22:33;;;;;;;26.83;14.02;;;;;;;-143.48;88.27;118439.88;5054536;28;20392;-35
2023/02/12 01:24:58;;;;;;;28.15;14.50;;;;;;;-143.48;88.30;118439.88;5054707;28;20032;-35
2023/02/12 01:27:23;;;;;;;29.00;14.77;;;;;;;-143.48;88.84;118439.88;5054435;28;20468;-35
2023/02/12 01:29:48;;;;;;;25.48;13.57;;;;;;;-143.48;89.01;118439.88;5054691;28;20048;-35
2023/02/12 01:32:14;;;;;;;28.85;14.05;;;;;;;-143.48;88.40;118439.88;5054371;28;20056;-35
2023/02/12 01:34:39;;;;;;;26.40;14.10;;;;;;;-143.48;88.48;118439.88;5054556;28;20029;-35
2023/02/12 01:37:04;;;;;;;30.35;14.73;;;;;;;-143.48;88.55;118439.88;5054312;28;20027;-35
2023/02/12 01:39:30;;;;;;;31.23;15.52;;;;;;;-143.48;88.91;118439.88;5054830;28;20039;-36
2023/02/12 01:41:55;;;;;;;29.52;14.70;;;;;;;-143.48;88.02;118439.88;5054019;28;20028;-34
2023/02/12 01:44:23;;;;;;;26.02;14.27;;;;;;;-143.48;87.82;118439.88;5054414;28;20037;-35
2023/02/12 01:46:59;;;;;;;28.27;14.82;;;;;;;-143.48;88.51;118439.88;5054413;28;20029;-34
2023/02/12 01:49:37;;;;;;;26.02;14.02;;;;;;;-143.48;88.53;118439.88;5053982;28;20025;-36
2023/02/12 01:52:11;;;;;;;25.90;14.38;;;;;;;-143.48;89.18;118439.88;5052718;28;20028;-34
2023/02/12 01:54:37;;;;;;;25.38;13.88;;;;;;;-143.48;88.69;118439.88;5053962;28;20099;-34
2023/02/12 01:57:06;;;;;;;33.90;14.45;;;;;;;-143.48;88.48;118439.88;5053421;28;20109;-35
2023/02/12 01:59:33;;;;;;;28.80;14.30;;;;;;;-143.48;88.53;118439.88;5053698;28;20021;-35
2023/02/12 02:01:58;;;;;;;25.92;13.57;;;;;;;-143.48;88.46;118439.88;5054298;28;20047;-35
2023/02/12 02:04:30;;;;;;;25.70;13.85;;;;;;;-143.48;88.01;118439.88;5053573;28;20025;-34
2023/02/12 02:06:59;;;;;;;27.38;13.75;;;;;;;-143.48;87.87;118439.88;5054008;28;20025;-35
2023/02/12 02:09:26;;;;;;;32.25;14.00;;;;;;;-143.48;88.07;118439.88;5053988;28;20051;-35
2023/02/12 02:14:37;;;;;;;27.80;14.32;;;;;;;-143.48;88.04;118439.88;5053805;28;20094;-35
2023/02/12 02:17:05;;;;;;;28.83;14.60;;;;;;;-143.48;87.84;118439.88;5054036;28;20028;-34
2023/02/12 02:20:10;;;;;;;26.73;13.60;;;;;;;-143.48;88.12;118439.88;5052189;28;20045;-36
2023/02/12 02:22:44;;;;;;;31.17;13.82;;;;;;;-143.48;87.85;118439.88;5054033;28;20041;-34
2023/02/12 02:25:31;;;;;;;29.30;14.40;;;;;;;-143.48;88.07;118439.88;5053734;28;20043;-35
2023/02/12 02:28:11;;;;;;;30.25;14.25;;;;;;;-143.48;88.51;118439.88;5052111;28;20388;-35
2023/02/12 02:30:56;;;;;;;26.42;13.77;;;;;;;-143.48;87.92;118439.88;5053344;28;20025;-35
2023/02/12 02:33:38;;;;;;;25.85;13.30;;;;;;;-143.48;88.18;118439.88;5053622;28;20041;-35
2023/02/12 02:36:10;;;;;;;29.98;14.32;;;;;;;-143.48;88.48;118439.88;5053821;28;20401;-35
2023/02/12 02:38:49;;;;;;;25.88;13.20;;;;;;;-143.48;88.36;118439.88;5053572;28;20051;-35
2023/02/12 02:41:21;;;;;;;30.13;14.30;;;;;;;-143.48;88.87;118439.88;5053691;28;20025;-34
2023/02/12 02:43:49;;;;;;;25.75;14.00;;;;;;;-143.48;88.63;118439.88;5053283;28;20052;-34
2023/02/12 02:46:20;;;;;;;26.10;14.43;;;;;;;-143.48;89.34;118439.88;5053523;28;20032;-35
2023/02/12 02:48:52;;;;;;;31.45;14.80;;;;;;;-143.48;88.74;118439.88;5053370;28;20016;-34
2023/02/12 02:51:21;;;;;;;29.08;14.13;;;;;;;-143.48;88.78;118439.88;5053748;28;20032;-34
2023/02/12 02:54:10;;;;;;;25.88;13.82;;;;;;;-143.48;89.12;118439.88;5053441;28;20026;-35
2023/02/12 02:56:38;;;;;;;29.70;14.18;;;;;;;-143.48;88.97;118439.88;5051876;28;20029;-35
2023/02/12 02:59:14;;;;;;;28.65;14.63;;;;;;;-143.48;88.68;118439.88;5052942;28;20028;-35
2023/02/12 03:01:45;;;;;;;30.40;14.45;;;;;;;-143.48;88.94;118439.88;5053583;28;20032;-43
2023/02/12 03:04:20;;;;;;;28.38;14.77;;;;;;;-143.48;89.23;118439.88;5053475;28;20553;-35
2023/02/12 03:07:05;;;;;;;34.30;14.98;;;;;;;-143.48;89.02;118439.88;5053292;28;20112;-36
2023/02/12 03:09:43;;;;;;;29.38;15.05;;;;;;;-143.48;88.80;118439.88;5055281;28;20029;-37
2023/02/12 03:12:14;;;;;;;29.38;14.65;;;;;;;-143.48;88.61;118439.88;5057268;28;20104;-34
2023/02/12 03:14:47;;;;;;;27.10;14.70;;;;;;;-143.48;88.66;118439.88;5056078;28;20091;-37
2023/02/12 03:17:18;;;;;;;;;;;;;;;-143.48;88.84;118439.88;5057638;28;20379;-35
2023/02/12 03:19:55;;;;;;;27.95;14.70;;;;;;;-143.48;89.09;118439.88;5056785;28;19919;-34
2023/02/12 03:22:26;;;;;;;49.22;15.20;;;;;;;-143.48;88.85;118439.88;5056746;28;20387;-37
2023/02/12 03:25:03;;;;;;;26.15;14.35;;;;;;;-143.48;89.37;118439.88;5056775;28;20025;-35
2023/02/12 03:27:32;;;;;;;28.88;14.98;;;;;;;-143.48;89.26;118439.88;5056742;28;20068;-34
2023/02/12 03:29:59;;;;;;;29.02;14.18;;;;;;;-143.48;88.92;118439.88;5056957;28;20450;-35
2023/02/12 03:33:13;;;;;;;29.20;13.82;;;;;;;-143.48;89.86;118439.88;5056500;28;20021;-34
2023/02/12 03:35:54;;;;;;;32.88;15.38;;;;;;;-143.48;89.51;118439.88;5054710;28;20037;-35
2023/02/12 03:38:34;;;;;;;28.27;14.25;;;;;;;-143.48;88.90;118439.88;5056847;28;20463;-35
2023/02/12 03:41:13;;;;;;;26.75;14.75;;;;;;;-143.48;89.05;118439.88;5056727;28;20407;-34
2023/02/12 03:44:09;;;;;;;28.15;14.50;;;;;;;-143.48;88.55;118439.88;5056347;28;20104;-35
2023/02/12 03:46:57;;;;;;;28.20;14.52;;;;;;;-143.48;88.61;118439.88;5054472;28;20037;-35
2023/02/12 03:49:29;;;;;;;27.88;14.88;;;;;;;-143.48;88.92;118439.88;5056902;28;20128;-34
2023/02/12 03:51:57;;;;;;;26.27;14.43;;;;;;;-143.48;89.04;118439.88;5055061;28;20024;-35
2023/02/12 03:54:22;;;;;;;31.05;15.00;;;;;;;-143.48;88.83;118439.88;5056341;28;20025;-35
2023/02/12 03:57:02;;;;;;;28.88;14.85;;;;;;;-143.48;88.65;118439.88;5054979;28;20025;-35
2023/02/12 03:59:28;;;;;;;33.47;15.95;;;;;;;-143.48;88.37;118439.88;5056691;28;20033;-36
2023/02/12 04:01:56;;;;;;;33.63;15.35;;;;;;;-143.48;88.64;118439.88;5056053;28;20051;-35
2023/02/12 04:04:23;;;;;;;32.22;16.00;;;;;;;-143.48;88.01;118439.88;5056232;28;20057;-35
2023/02/12 04:06:50;;;;;;;31.30;16.30;;;;;;;-143.48;88.40;118439.88;5056047;28;20056;-34
2023/02/12 04:09:16;;;;;;;33.28;16.58;;;;;;;-143.48;88.14;118439.88;5055924;28;20032;-36
2023/02/12 04:12:06;;;;;;;33.83;15.52;;;;;;;-143.48;87.96;118439.88;5055477;28;20032;-36
2023/02/12 04:14:51;;;;;;;36.80;17.10;;;;;;;-143.48;87.93;118439.88;5056161;28;20114;-35
2023/02/12 04:17:45;;;;;;;36.05;16.55;;;;;;;-143.48;87.94;118439.88;5056328;28;20025;-36
2023/02/12 04:20:13;;;;;;;32.20;16.77;;;;;;;-143.48;88.51;118439.88;5054912;28;20053;-35
2023/02/12 04:22:53;;;;;;;32.20;16.33;;;;;;;-143.48;88.62;118439.88;5055721;28;20094;-35
2023/02/12 04:25:30;;;;;;;33.22;16.92;;;;;;;-143.48;87.58;118439.88;5055944;28;20375;-35
2023/02/12 04:28:17;;;;;;;32.05;16.50;;;;;;;-143.48;87.88;118439.88;5055856;28;20475;-35
2023/02/12 04:30:55;;;;;;;33.15;17.17;;;;;;;-143.48;88.15;118439.88;5055563;28;20384;-34
2023/02/12 04:33:24;;;;;;;34.90;16.45;;;;;;;-143.48;88.23;118439.88;5056032;28;20105;-39
2023/02/12 04:36:01;;;;;;;30.75;16.63;;;;;;;-143.48;88.60;118439.88;5054241;28;20029;-39
2023/02/12 04:38:41;;;;;;;35.25;16.35;;;;;;;-143.48;88.07;118439.88;5055880;28;20025;-39
2023/02/12 04:41:07;;;;;;;29.20;15.95;;;;;;;-143.48;88.03;118439.88;5055880;28;20078;-40
2023/02/12 04:43:36;;;;;;;32.05;16.13;;;;;;;-143.48;88.33;118439.88;5055487;28;20037;-39
2023/02/12 04:46:06;;;;;;;38.17;17.15;;;;;;;-143.48;88.59;118439.88;5056360;28;20036;-39
2023/02/12 04:48:33;;;;;;;33.10;16.58;;;;;;;-143.48;88.44;118439.88;5055222;28;20115;-40
2023/02/12 04:50:59;;;;;;;34.22;16.48;;;;;;;-143.48;87.42;118439.88;5055446;28;20028;-40
2023/02/12 04:53:24;;;;;;;36.95;17.40;;;;;;;-143.48;87.00;118439.88;5055216;28;20040;-39
2023/02/12 04:55:50;;;;;;;31.80;15.68;;;;;;;-143.48;86.95;118439.88;5055028;28;20514;-40
2023/02/12 04:58:16;;;;;;;27.10;15.55;;;;;;;-143.48;87.52;118439.88;5055612;28;20060;-40
2023/02/12 05:00:41;;;;;;;31.38;15.85;;;;;;;-143.48;87.41;118439.88;5053709;28;20450;-41
2023/02/12 05:03:06;;;;;;;30.20;16.35;;;;;;;-143.48;87.24;118439.88;5054958;28;20103;-41
2023/02/12 05:05:32;;;;;;;32.35;16.98;;;;;;;-143.48;87.44;118439.88;5054879;28;20099;-40
2023/02/12 05:07:57;;;;;;;31.98;16.25;;;;;;;-143.48;87.62;118439.88;5055122;28;20025;-40
2023/02/12 05:10:22;;;;;;;30.63;16.52;;;;;;;-143.48;86.99;118439.88;5055408;28;20025;-40
2023/02/12 05:12:51;;;;;;;29.80;16.63;;;;;;;-143.48;87.35;118439.88;5055023;28;20025;-40
2023/02/12 05:15:16;;;;;;;33.30;16.60;;;;;;;-143.48;88.06;118439.88;5054892;28;20107;-40
2023/02/12 05:17:41;;;;;;;30.17;16.65;;;;;;;-143.48;88.01;118439.88;5054803;28;20533;-40
2023/02/12 05:20:07;;;;;;;30.25;16.92;;;;;;;-143.48;86.97;118439.88;5054907;28;20062;-40
2023/02/12 05:22:32;;;;;;;34.53;16.95;;;;;;;-143.48;87.44;118439.88;5054810;28;20028;-40
2023/02/12 05:24:58;;;;;;;30.58;16.13;;;;;;;-143.48;87.54;118439.88;5055284;28;20108;-41
2023/02/12 05:27:23;;;;;;;31.00;16.45;;;;;;;-143.48;87.14;118439.88;5054805;28;20024;-41
2023/02/12 05:29:48;;;;;;;35.63;17.30;;;;;;;-143.48;86.17;118439.88;5054503;28;20107;-41
2023/02/12 05:32:14;;;;;;;30.75;16.05;;;;;;;-143.48;87.03;118439.88;5054327;28;20096;-40
2023/02/12 05:34:39;;;;;;;30.48;16.23;;;;;;;-143.48;87.77;118439.88;5054659;28;20116;-41
2023/02/12 05:37:04;;;;;;;30.67;16.73;;;;;;;-143.48;87.93;118439.88;5054866;28;20452;-40
2023/02/12 05:39:30;;;;;;;31.15;16.23;;;;;;;-143.48;87.73;118439.88;5053032;28;20115;-41
2023/02/12 05:41:56;;;;;;;32.28;16.75;;;;;;;-143.48;86.59;118439.88;5054155;28;20035;-41
2023/02/12 05:44:21;;;;;;;32.97;17.85;;;;;;;-143.48;86.43;118439.88;5054086;28;20490;-46
2023/02/12 05:46:46;;;;;;;31.02;17.40;;;;;;;-143.48;86.04;118439.88;5054962;28;20024;-40
2023/02/12 05:49:11;;;;;;;31.38;17.42;;;;;;;-143.48;85.70;118439.88;5054603;28;20048;-41
2023/02/12 05:51:37;;;;;;;33.38;16.58;;;;;;;-143.48;85.75;118439.88;5054067;28;20459;-40
2023/02/12 05:54:04;;;;;;;31.60;17.30;;;;;;;-143.48;86.48;118439.88;5054297;28;20029;-40
2023/02/12 05:56:51;;;;;;;32.60;17.38;;;;;;;-143.48;86.03;118439.88;5053841;28;20065;-40
2023/02/12 05:59:20;;;;;;;30.92;17.00;;;;;;;-143.48;85.53;118439.88;5054222;28;20071;-41
2023/02/12 06:01:47;;;;;;;34.15;17.63;;;;;;;-143.48;84.84;118439.88;5053759;28;20124;-41
2023/02/12 06:04:19;;;;;;;33.47;17.20;;;;;;;-143.48;85.00;118439.88;5054005;28;20115;-40
2023/02/12 06:06:44;;;;;;;30.45;17.33;;;;;;;-143.48;85.00;118439.88;5053708;28;20031;-41
2023/02/12 06:09:11;;;;;;;32.90;17.13;;;;;;;-143.48;85.34;118439.88;5054046;28;20033;-40
2023/02/12 06:11:37;;;;;;;31.73;17.05;;;;;;;-143.48;85.49;118439.88;5053974;28;20024;-41
2023/02/12 06:14:07;;;;;;;29.55;17.05;;;;;;;-143.48;85.74;118439.88;5052375;28;20021;-40
2023/02/12 06:16:33;;;;;;;30.88;16.77;;;;;;;-143.48;85.65;118439.88;5053871;28;20017;-41
2023/02/12 06:19:01;;;;;;;33.55;18.63;;;;;;;-143.48;85.96;118439.88;5053770;28;20062;-41
2023/02/12 06:21:28;;;;;;;30.77;17.55;;;;;;;-143.48;86.23;118439.88;5053487;28;20079;-40
2023/02/12 06:23:54;;;;;;;35.58;18.95;;;;;;;-143.48;86.00;118439.88;5053787;28;20052;-40
2023/02/12 06:26:20;;;;;;;34.42;18.25;;;;;;;-143.48;85.10;118439.88;5053515;28;20021;-41
2023/02/12 06:28:45;;;;;;;33.13;17.60;;;;;;;-143.48;85.15;118439.88;5053642;28;20024;-41
2023/02/12 06:31:20;;;;;;;30.25;17.38;;;;;;;-143.48;85.27;118439.88;5052226;28;20079;-41
2023/02/12 06:33:45;;;;;;;29.17;17.35;;;;;;;-143.48;85.63;118439.88;5053347;28;20116;-41
2023/02/12 06:36:10;;;;;;;37.08;17.67;;;;;;;-143.48;85.96;118439.88;5053419;28;20099;-41
2023/02/12 06:38:36;;;;;;;30.65;17.92;;;;;;;-143.48;85.42;118439.88;5053567;28;20017;-41
2023/02/12 06:41:02;;;;;;;29.48;17.42;;;;;;;-143.48;83.72;118439.88;5053825;28;20025;-41
2023/02/12 06:43:27;;;;;;;31.85;17.20;;;;;;;-143.48;83.98;118439.88;5052783;28;20021;-40
2023/02/12 06:45:52;;;;;;;29.20;16.83;;;;;;;-143.48;84.55;118439.88;5035411;28;20098;-40
2023/02/12 06:48:18;;;;;;;31.17;17.30;;;;;;;-143.48;85.53;118439.88;5053574;28;20360;-40
2023/02/12 06:50:43;;;;;;;35.08;17.42;;;;;;;-143.48;85.64;118439.88;5052976;28;20353;-41
2023/02/12 06:53:09;;;;;;;32.35;18.05;;;;;;;-143.48;85.44;118439.88;5053136;28;20028;-40
2023/02/12 06:55:34;;;;;;;32.88;17.90;;;;;;;-143.48;85.23;118439.88;5052218;28;20047;-41
2023/02/12 06:57:59;;;;;;;32.10;18.35;;;;;;;-143.48;85.25;118439.88;5053159;28;20109;-41
2023/02/12 07:00:25;;;;;;;30.77;17.52;;;;;;;-143.48;84.70;118439.88;5053047;28;20033;-41
2023/02/12 07:02:56;;;;;;;34.05;18.20;;;;;;;-143.48;84.13;118439.88;5053469;28;20117;-41
2023/02/12 07:05:22;;;;;;;30.95;17.70;;;;;;;-143.48;84.32;118439.88;5052864;28;20080;-40
2023/02/12 07:07:47;;;;;;;35.58;17.88;;;;;;;-143.48;85.32;118439.88;5052106;28;20146;-41
2023/02/12 07:10:13;;;;;;;31.98;17.42;;;;;;;-143.48;84.67;118439.88;5050175;28;20149;-41
2023/02/12 07:12:38;;;;;;;35.53;17.65;;;;;;;-143.48;84.53;118439.88;5051136;28;20024;-41
2023/02/12 07:15:04;;;;;;;30.58;18.33;;;;;;;-143.48;84.63;118439.88;5050163;28;20036;-40
2023/02/12 07:17:29;;;;;;;31.50;18.33;;;;;;;-143.48;84.40;118439.88;5051292;28;20018;-41
2023/02/12 07:19:55;;;;;;;28.27;16.80;;;;;;;-143.48;83.68;118439.88;5050775;28;20095;-41
2023/02/12 07:22:21;;;;;;;31.15;17.13;;;;;;;-143.48;83.46;118439.88;5051360;28;20021;-41
2023/02/12 07:24:47;;;;;;;30.60;16.92;;;;;;;-143.48;83.37;118439.88;5052067;28;20017;-41
2023/02/12 07:27:13;;;;;;;32.15;17.33;;;;;;;-143.48;83.26;118439.88;5052867;28;20021;-41
2023/02/12 07:29:38;;;;;;;32.47;17.27;;;;;;;-143.48;83.20;118439.88;5052885;28;20079;-41
2023/02/12 07:32:04;;;;;;;31.35;17.98;;;;;;;-143.48;83.58;118439.88;5053157;28;20100;-42
2023/02/12 07:34:29;;;;;;;31.60;17.30;;;;;;;-143.48;83.52;118439.88;5053106;28;20353;-41
2023/02/12 07:36:54;;;;;;;31.33;18.13;;;;;;;-143.48;83.53;118439.88;5052808;28;20027;-41
2023/02/12 07:39:20;;;;;;;29.83;16.58;;;;;;;-143.48;82.60;118439.88;5052892;28;20531;-41
2023/02/12 07:41:45;;;;;;;26.17;16.85;;;;;;;-143.48;82.62;118439.88;5053251;28;20345;-41
2023/02/12 07:44:11;;;;;;;26.13;16.50;;;;;;;-143.48;81.87;118439.88;5052681;28;20105;-40
2023/02/12 07:46:39;;;;;;;25.65;15.85;;;;;;;-143.48;81.73;118439.88;5052784;28;20112;-41
2023/02/12 07:49:07;;;;;;;29.10;17.20;;;;;;;-143.48;81.94;118439.88;5051440;28;20036;-40
2023/02/12 07:51:34;;;;;;;24.58;16.27;;;;;;;-143.48;81.68;118439.88;5052616;28;20475;-41
2023/02/12 07:54:00;;;;;;;26.52;16.05;;;;;;;-143.48;80.88;118439.88;5052694;28;20021;-41
2023/02/12 07:56:31;;;;;;;24.52;15.63;;;;;;;-143.48;82.33;118439.88;5054367;28;20025;-40
2023/02/12 07:58:58;;;;;;;28.02;15.63;;;;;;;-143.48;81.04;118439.88;5054959;28;20033;-40
2023/02/12 08:01:27;;;;;;;24.58;15.50;;;;;;;-143.48;79.59;118439.88;5056178;28;20091;-40
2023/02/12 08:03:56;;;;;;;22.25;15.18;;;;;;;-143.48;79.26;118439.88;5056682;28;20068;-41
2023/02/12 08:06:26;;;;;;;25.50;15.98;;;;;;;-143.48;78.96;118439.88;5054878;28;20090;-41
2023/02/12 08:08:53;;;;;;;28.98;15.27;;;;;;;-143.48;78.54;118439.88;5054885;28;20025;-41
2023/02/12 08:11:18;;;;;;;27.88;16.42;;;;;;;-143.48;79.40;118439.88;5054697;28;20383;-40
2023/02/12 08:13:44;;;;;;;25.00;15.77;;;;;;;-143.48;79.69;118439.88;5055865;28;20025;-41
2023/02/12 08:16:13;;;;;;;27.10;16.02;;;;;;;-143.48;80.68;118439.88;5056153;28;20179;-41
2023/02/12 08:18:38;;;;;;;20.58;13.00;;;;;;;-143.48;78.14;118439.88;5055654;28;20048;-41
2023/02/12 08:21:09;;;;;;;22.50;14.70;;;;;;;-143.48;79.22;118439.88;5055653;28;20036;-41
2023/02/12 08:23:35;;;;;;;24.58;14.35;;;;;;;-143.48;80.74;118439.88;5056016;28;20483;-40
2023/02/12 08:26:16;;;;;;;23.98;15.23;;;;;;;-143.48;80.27;118439.88;5055666;28;20021;-41
2023/02/12 08:28:47;;;;;;;24.52;14.38;;;;;;;-143.48;81.12;118439.88;5055680;28;20039;-41
2023/02/12 08:31:19;;;;;;;21.67;14.05;;;;;;;-143.48;79.50;118439.88;5055610;28;20051;-40
2023/02/12 08:33:46;;;;;;;23.35;13.93;;;;;;;-143.48;79.95;118439.88;5055625;28;20031;-40
2023/02/12 08:36:15;;;;;;;23.00;13.50;;;;;;;-143.48;78.80;118439.88;5054187;28;20024;-41
2023/02/12 08:38:42;;;;;;;23.80;13.27;;;;;;;-143.48;76.76;118439.88;5054215;28;20025;-40
2023/02/12 08:41:12;;;;;;;24.60;14.35;;;;;;;-143.48;76.91;118439.88;5055235;28;20052;-41
2023/02/12 08:43:39;;;;;;;24.17;14.80;;;;;;;-143.48;76.59;118439.88;5054947;28;20029;-40
2023/02/12 08:46:07;;;;;;;24.50;13.02;;;;;;;-143.48;76.50;118439.88;5054490;28;20055;-40
2023/02/12 08:48:33;;;;;;;22.60;13.40;;;;;;;-143.48;75.57;118439.88;5054087;28;20468;-41
2023/02/12 08:51:12;;;;;;;23.30;13.68;;;;;;;-143.48;75.38;118439.88;5053889;28;20032;-40
2023/02/12 08:53:39;;;;;;;20.50;12.60;;;;;;;-143.48;75.48;118439.88;5055507;28;20036;-41
2023/02/12 08:56:05;;;;;;;20.95;13.20;;;;;;;-143.48;75.17;118439.88;5055671;28;20021;-41
2023/02/12 08:58:31;;;;;;;21.80;14.05;;;;;;;-143.48;75.92;118439.88;5055677;28;20032;-41
2023/02/12 09:00:56;;;;;;;22.35;13.48;;;;;;;-143.48;75.61;118439.88;5054951;28;20029;-41
2023/02/12 09:03:22;;;;;;;21.63;13.52;;;;;;;-143.48;77.17;118439.88;5055152;28;20482;-41
2023/02/12 09:05:47;;;;;;;22.52;13.82;;;;;;;-143.48;77.40;118439.88;5055217;28;20024;-40
2023/02/12 09:08:12;;;;;;;21.85;13.50;;;;;;;-143.48;77.86;118439.88;5054779;28;20039;-40
2023/02/12 09:10:39;;;;;;;21.92;13.50;;;;;;;-143.48;77.90;118439.88;5055144;28;20534;-40
2023/02/12 09:13:06;;;;;;;21.80;13.60;;;;;;;-143.48;76.75;118439.88;5053657;28;20489;-41
2023/02/12 09:15:36;;;;;;;22.25;13.23;;;;;;;-143.48;76.00;118439.88;5054926;28;20175;-41
2023/02/12 09:18:02;;;;;;;22.83;13.40;;;;;;;-143.48;77.04;118439.88;5053380;28;20376;-41
2023/02/12 09:20:28;;;;;;;20.92;13.95;;;;;;;-143.48;77.41;118439.88;5054846;28;20041;-41
2023/02/12 09:22:54;;;;;;;21.35;13.63;;;;;;;-143.48;77.20;118439.88;5054616;28;20482;-41
2023/02/12 09:25:20;;;;;;;23.30;13.73;;;;;;;-143.48;76.20;118439.88;5053252;28;20048;-41
2023/02/12 09:27:45;;;;;;;21.70;13.50;;;;;;;-143.48;75.46;118439.88;5053288;28;20039;-42
2023/02/12 09:30:11;;;;;;;23.92;13.80;;;;;;;-143.48;76.01;118439.88;5054460;28;20112;-40
2023/02/12 09:32:36;;;;;;;24.02;13.10;;;;;;;-143.48;75.35;118439.88;5054699;28;20031;-41
2023/02/12 09:35:02;;;;;;;19.92;12.88;;;;;;;-143.48;75.60;118439.88;5054559;28;20021;-41
2023/02/12 09:37:27;;;;;;;18.08;12.55;;;;;;;-143.48;74.50;118439.88;5054598;28;20033;-40
2023/02/12 09:39:52;;;;;;;19.17;13.20;;;;;;;-143.48;75.28;118439.88;5055004;28;20079;-40
2023/02/12 09:42:23;;;;;;;22.23;12.85;;;;;;;-143.48;75.64;118439.88;5054471;28;20024;-41
2023/02/12 09:45:02;;;;;;;21.23;13.32;;;;;;;-143.48;75.01;118439.88;5054444;28;20112;-41
2023/02/12 09:47:50;;;;;;;21.67;13.57;;;;;;;-143.48;74.59;118439.88;5054251;28;20031;-41
2023/02/12 09:50:37;;;;;;;20.55;13.93;;;;;;;-143.48;74.88;118439.88;5053888;28;20033;-41
2023/02/12 09:53:03;;;;;;;23.23;13.40;;;;;;;-143.48;74.94;118439.88;5053786;28;20103;-41
2023/02/12 09:55:31;;;;;;;22.65;14.30;;;;;;;-143.48;75.35;118439.88;5052564;28;20025;-41
2023/02/12 09:57:59;;;;;;;23.67;13.23;;;;;;;-143.48;76.10;118439.88;5054082;28;20079;-41
2023/02/12 10:00:29;;;;;;;21.75;13.75;;;;;;;-143.48;76.69;118439.88;5054144;28;20380;-40
2023/02/12 10:02:56;;;;;;;21.60;13.40;;;;;;;-143.48;76.19;118439.88;5053885;28;20383;-41
2023/02/12 10:05:31;;;;;;;22.98;14.23;;;;;;;-143.48;76.95;118439.88;5052357;28;20021;-40
2023/02/12 10:08:24;;;;;;;23.35;13.40;;;;;;;-143.48;76.32;118439.88;5053923;28;20048;-41
2023/02/12 10:10:58;;;;;;;;;;;;;;;-143.48;75.78;118439.88;5052989;28;20087;-40
2023/02/12 10:13:42;;;;;;;24.60;13.60;;;;;;;-143.48;76.23;118439.88;5054042;28;20343;-40
2023/02/12 10:16:19;;;;;;;20.75;13.02;;;;;;;-143.48;76.75;118439.88;5052718;28;20033;-41
2023/02/12 10:19:11;;;;;;;22.17;13.45;;;;;;;-143.48;76.12;118439.88;5053022;28;20045;-41
2023/02/12 10:21:52;;;;;;;22.05;12.32;;;;;;;-143.48;75.86;118439.88;5053661;28;20025;-41
2023/02/12 10:24:36;;;;;;;23.92;13.25;;;;;;;-143.48;76.59;118439.88;5053332;28;20043;-41
2023/02/12 10:27:13;;;;;;;18.95;12.30;;;;;;;-143.48;75.47;118439.88;5052049;28;20079;-41
2023/02/12 10:29:42;;;;;;;19.13;12.88;;;;;;;-143.48;75.70;118439.88;5053346;28;20105;-41
2023/02/12 10:32:34;;;;;;;22.35;12.65;;;;;;;-143.48;75.97;118439.88;5053609;28;20518;-39
2023/02/12 10:35:00;;;;;;;19.20;12.82;;;;;;;-143.48;75.23;118439.88;5052936;28;20041;-41
2023/02/12 10:37:42;;;;;;;17.38;12.18;;;;;;;-143.48;75.16;118439.88;5053236;28;20035;-40
2023/02/12 10:40:22;;;;;;;17.58;11.95;;;;;;;-143.48;75.23;118439.88;5053572;28;20094;-39
2023/02/12 10:42:50;;;;;;;21.77;11.88;;;;;;;-143.48;74.70;118439.88;5054365;28;20033;-40
2023/02/12 10:45:22;;;;;;;19.70;11.70;;;;;;;-143.48;74.72;118439.88;5053255;28;20024;-40
2023/02/12 10:47:52;;;;;;;16.48;10.85;;;;;;;-143.48;74.64;118439.88;5053529;28;20086;-39
2023/02/12 10:50:43;;;;;;;16.88;10.80;;;;;;;-143.48;73.75;118439.88;5053798;28;20025;-40
2023/02/12 10:53:30;;;;;;;17.35;10.40;;;;;;;-143.48;73.17;118439.88;5053206;28;20047;-41
2023/02/12 10:56:16;;;;;;;14.27;10.43;;;;;;;-143.48;72.92;118439.88;5051928;28;20028;-41
2023/02/12 10:58:59;;;;;;;16.17;10.65;;;;;;;-143.48;72.48;118439.88;5049697;28;20021;-39
2023/02/12 11:01:28;;;;;;;14.60;10.32;;;;;;;-143.48;72.11;118439.88;5050988;28;20053;-39
2023/02/12 11:03:55;;;;;;;15.63;10.23;;;;;;;-143.48;72.53;118439.88;5051069;28;20503;-41
2023/02/12 11:06:24;;;;;;;16.38;10.57;;;;;;;-143.48;71.76;118439.88;5051352;28;20017;-40
2023/02/12 11:08:51;;;;;;;14.30;10.23;;;;;;;-143.48;71.98;118439.88;5050886;28;20033;-40
2023/02/12 11:11:26;;;;;;;19.13;11.48;;;;;;;-143.48;72.22;118439.88;5052039;28;20056;-41